Time;durP1;ratioP1;P1;durP2;ratioP2;P2;SDS_P1;SDS_P2;PMS_P1;PMS_P2;Temp;Humidity;BMP_temperature;BMP_pressure;BME280_temperature;BME280_humidity;BME280_pressure;Samples;Min_cycle;Max_cycle;Signal;HPM_P1;HPM_P2
2023/04/12 00:01:51;;;;;;;10.37;4.70;;;4.70;99.90;;;;;;5054522;28;20089;-78
2023/04/12 00:04:17;;;;;;;9.67;4.57;;;4.70;99.90;;;;;;5054141;28;20832;-78
2023/04/12 00:06:47;;;;;;;7.37;3.73;;;4.70;99.90;;;;;;5053072;28;20148;-78
2023/04/12 00:09:14;;;;;;;8.37;3.37;;;4.80;99.90;;;;;;5053789;28;20392;-78
2023/04/12 00:11:40;;;;;;;8.70;3.30;;;4.80;99.90;;;;;;5052728;28;20093;-78
2023/04/12 00:14:05;;;;;;;6.10;2.70;;;4.80;99.90;;;;;;5053884;28;20049;-78
2023/04/12 00:16:31;;;;;;;5.83;3.10;;;4.80;99.90;;;;;;5053315;28;20036;-78
2023/04/12 00:18:57;;;;;;;9.20;3.13;;;4.80;99.90;;;;;;5052735;28;20060;-78
2023/04/12 00:21:23;;;;;;;6.20;2.67;;;4.90;99.90;;;;;;5052893;28;20036;-78
2023/04/12 00:23:48;;;;;;;7.63;3.13;;;4.90;99.90;;;;;;5053167;28;20036;-78
2023/04/12 00:26:14;;;;;;;6.73;2.20;;;4.90;99.90;;;;;;5053369;28;20043;-78
2023/04/12 00:28:41;;;;;;;5.43;2.73;;;4.90;99.90;;;;;;5053587;28;20040;-78
2023/04/12 00:31:07;;;;;;;6.60;2.30;;;5.00;99.90;;;;;;5051890;28;20035;-78
2023/04/12 00:33:33;;;;;;;5.67;2.30;;;5.00;99.90;;;;;;5053570;28;20036;-78
2023/04/12 00:35:59;;;;;;;5.73;2.40;;;5.00;99.90;;;;;;5051974;28;20032;-78
2023/04/12 00:38:25;;;;;;;5.47;2.17;;;5.00;99.90;;;;;;5055248;28;20045;-78
2023/04/12 00:40:50;;;;;;;6.90;2.13;;;5.00;99.90;;;;;;5052969;28;20064;-77
2023/04/12 00:43:17;;;;;;;3.20;1.80;;;5.10;99.90;;;;;;5051395;28;20024;-77
2023/04/12 00:45:44;;;;;;;2.93;1.80;;;5.10;99.90;;;;;;5051636;28;21512;-77
2023/04/12 00:48:10;;;;;;;5.07;2.30;;;5.10;99.90;;;;;;5051025;28;20501;-77
2023/04/12 00:50:36;;;;;;;5.57;2.23;;;5.20;99.90;;;;;;5051443;28;20164;-78
2023/04/12 00:53:03;;;;;;;4.07;1.93;;;5.20;99.90;;;;;;5052157;28;20036;-78
2023/04/12 00:55:28;;;;;;;5.10;1.97;;;5.20;99.90;;;;;;5051402;28;20036;-77
2023/04/12 00:57:54;;;;;;;5.17;2.50;;;5.30;99.90;;;;;;5051488;28;20047;-77
2023/04/12 01:00:20;;;;;;;6.63;1.87;;;5.30;99.90;;;;;;5050643;28;20044;-77
2023/04/12 01:02:49;;;;;;;5.03;2.00;;;5.30;99.90;;;;;;5052568;28;20463;-77
2023/04/12 01:05:20;;;;;;;4.17;1.90;;;5.40;99.90;;;;;;5053339;28;20028;-77
2023/04/12 01:08:03;;;;;;;4.93;2.40;;;5.40;99.90;;;;;;5051356;28;20028;-77
2023/04/12 01:10:34;;;;;;;4.37;2.07;;;5.40;99.90;;;;;;5051145;28;20043;-78
2023/04/12 01:13:25;;;;;;;3.90;1.97;;;5.40;99.90;;;;;;5050719;28;20021;-77
2023/04/12 01:16:02;;;;;;;4.00;2.03;;;5.50;99.90;;;;;;5051550;28;20093;-77
2023/04/12 01:18:32;;;;;;;4.77;2.40;;;5.50;99.90;;;;;;5051745;28;20112;-77
2023/04/12 01:21:07;;;;;;;6.57;2.40;;;5.50;99.90;;;;;;5050161;28;20033;-78
2023/04/12 01:24:12;;;;;;;4.50;1.97;;;5.50;99.90;;;;;;5050608;28;20085;-77
2023/04/12 01:26:45;;;;;;;5.07;1.97;;;5.50;99.90;;;;;;5052150;28;20031;-78
2023/04/12 01:29:15;;;;;;;5.53;2.33;;;5.50;99.90;;;;;;5050339;28;20112;-77
2023/04/12 01:31:49;;;;;;;6.07;1.90;;;5.50;99.90;;;;;;5051001;28;20029;-77
2023/04/12 01:34:16;;;;;;;7.97;2.92;;;5.50;99.90;;;;;;5050993;28;20048;-77
2023/04/12 01:36:44;;;;;;;4.07;2.03;;;5.50;99.90;;;;;;5050899;28;20155;-77
2023/04/12 01:39:10;;;;;;;4.20;2.17;;;5.50;99.90;;;;;;5051206;28;20047;-78
2023/04/12 01:41:44;;;;;;;6.30;2.10;;;5.50;99.90;;;;;;5051277;28;20392;-77
2023/04/12 01:44:16;;;;;;;3.67;2.20;;;5.50;99.90;;;;;;5049692;28;20032;-77
2023/04/12 01:46:46;;;;;;;6.43;2.33;;;5.50;99.90;;;;;;5050865;28;20119;-77
2023/04/12 01:49:12;;;;;;;4.43;2.23;;;5.50;99.90;;;;;;5050015;28;20025;-77
2023/04/12 01:52:02;;;;;;;5.13;2.43;;;5.50;99.90;;;;;;5050207;28;20038;-77
2023/04/12 01:54:31;;;;;;;5.97;2.30;;;5.50;99.90;;;;;;5049131;28;20384;-77
2023/04/12 01:57:00;;;;;;;5.87;2.20;;;5.50;99.90;;;;;;5050525;28;20029;-78
2023/04/12 01:59:30;;;;;;;4.10;2.10;;;5.40;99.90;;;;;;5050247;28;20051;-78
2023/04/12 02:01:56;;;;;;;6.03;2.67;;;5.40;99.90;;;;;;5049573;28;21436;-78
2023/04/12 02:04:24;;;;;;;6.17;2.63;;;5.40;99.90;;;;;;5050362;28;20083;-78
2023/04/12 02:06:50;;;;;;;4.43;2.27;;;5.40;99.90;;;;;;5049754;28;20032;-78
2023/04/12 02:09:16;;;;;;;4.00;2.30;;;5.30;99.90;;;;;;5049523;28;20029;-78
2023/04/12 02:11:47;;;;;;;5.27;1.90;;;5.30;99.90;;;;;;5050265;28;20040;-78
2023/04/12 02:14:12;;;;;;;6.60;2.40;;;5.30;99.90;;;;;;5050546;28;20119;-78
2023/04/12 02:16:41;;;;;;;5.83;2.33;;;5.30;99.90;;;;;;5051337;28;20039;-78
2023/04/12 02:19:07;;;;;;;4.70;2.10;;;5.30;99.90;;;;;;5049723;28;20045;-78
2023/04/12 02:21:44;;;;;;;4.77;2.23;;;5.20;99.90;;;;;;5049300;28;20078;-78
2023/04/12 02:24:11;;;;;;;5.33;2.33;;;5.20;99.90;;;;;;5050545;28;20037;-78
2023/04/12 02:26:37;;;;;;;9.27;2.43;;;5.20;99.90;;;;;;5051018;28;20036;-78
2023/04/12 02:29:06;;;;;;;5.87;2.40;;;5.20;99.90;;;;;;5050224;28;20085;-78
2023/04/12 02:31:32;;;;;;;6.43;2.47;;;5.20;99.90;;;;;;5049799;28;20035;-78
2023/04/12 02:33:58;;;;;;;5.47;2.20;;;5.20;99.90;;;;;;5050749;28;20705;-78
2023/04/12 02:36:23;;;;;;;4.70;2.10;;;5.10;99.90;;;;;;5050241;28;20035;-78
2023/04/12 02:38:49;;;;;;;6.93;2.50;;;5.10;99.90;;;;;;5050959;28;20040;-78
2023/04/12 02:41:19;;;;;;;5.23;2.30;;;5.10;99.90;;;;;;5050170;28;20035;-78
2023/04/12 02:43:45;;;;;;;7.57;2.50;;;5.10;99.90;;;;;;5049194;28;20044;-77
2023/04/12 02:46:16;;;;;;;7.20;2.97;;;5.00;99.90;;;;;;5049418;28;20673;-77
2023/04/12 02:48:42;;;;;;;5.17;2.23;;;5.00;99.90;;;;;;5049266;28;20064;-78
2023/04/12 02:51:07;;;;;;;4.67;1.97;;;5.00;99.90;;;;;;5049589;28;20037;-77
2023/04/12 02:53:33;;;;;;;4.30;2.30;;;5.00;99.90;;;;;;5049779;28;21498;-78
2023/04/12 02:56:00;;;;;;;4.33;2.20;;;5.00;99.90;;;;;;5049686;28;20033;-77
2023/04/12 02:58:26;;;;;;;7.03;2.30;;;5.00;99.90;;;;;;5049259;28;20044;-77
2023/04/12 03:00:52;;;;;;;5.60;2.30;;;5.00;99.90;;;;;;5048093;28;20041;-78
2023/04/12 03:03:17;;;;;;;5.63;2.47;;;5.00;99.90;;;;;;5049334;28;20515;-77
2023/04/12 03:05:46;;;;;;;5.33;2.30;;;5.00;99.90;;;;;;5051735;28;20016;-78
2023/04/12 03:08:12;;;;;;;7.03;2.53;;;5.00;99.90;;;;;;5049394;28;20036;-77
2023/04/12 03:10:38;;;;;;;7.87;2.70;;;5.00;99.90;;;;;;5048602;28;20743;-77
2023/04/12 03:13:04;;;;;;;7.83;2.27;;;5.00;99.90;;;;;;5049003;28;20036;-77
2023/04/12 03:15:30;;;;;;;5.53;2.60;;;5.00;99.90;;;;;;5049498;28;20069;-77
2023/04/12 03:17:55;;;;;;;4.10;2.10;;;5.00;99.90;;;;;;5048821;28;20032;-78
2023/04/12 03:20:23;;;;;;;9.70;2.40;;;5.00;99.90;;;;;;5049244;28;20036;-77
2023/04/12 03:22:49;;;;;;;8.53;2.60;;;5.10;99.90;;;;;;5049437;28;20107;-78
2023/04/12 03:25:17;;;;;;;8.73;2.67;;;5.10;99.90;;;;;;5049533;28;20032;-78
2023/04/12 03:27:43;;;;;;;7.17;3.00;;;5.00;99.90;;;;;;5049726;28;20029;-78
2023/04/12 03:30:10;;;;;;;5.37;2.87;;;5.00;99.90;;;;;;5049501;28;20055;-77
2023/04/12 03:32:36;;;;;;;7.13;2.67;;;5.00;99.90;;;;;;5048877;28;20029;-77
2023/04/12 03:35:02;;;;;;;7.07;2.73;;;5.00;99.90;;;;;;5049411;28;20043;-78
2023/04/12 03:37:28;;;;;;;10.80;4.00;;;5.00;99.90;;;;;;5048516;28;20143;-77
2023/04/12 03:39:53;;;;;;;4.83;2.70;;;5.00;99.90;;;;;;5048399;28;20051;-78
2023/04/12 03:42:19;;;;;;;8.30;3.20;;;5.00;99.90;;;;;;5049521;28;20137;-77
2023/04/12 03:44:45;;;;;;;4.47;2.57;;;5.00;99.90;;;;;;5049366;28;20035;-77
2023/04/12 03:47:10;;;;;;;8.00;2.50;;;5.00;99.90;;;;;;5048607;28;20044;-78
2023/04/12 03:49:37;;;;;;;8.77;3.00;;;5.00;99.90;;;;;;5048625;28;20037;-78
2023/04/12 03:52:06;;;;;;;5.87;2.37;;;5.00;99.90;;;;;;5048667;28;20044;-77
2023/04/12 03:54:32;;;;;;;4.37;2.30;;;5.00;99.90;;;;;;5049510;28;20033;-78
2023/04/12 03:56:57;;;;;;;5.50;2.80;;;5.00;99.90;;;;;;5048659;28;20036;-78
2023/04/12 03:59:23;;;;;;;7.10;3.57;;;4.90;99.90;;;;;;5048150;28;20101;-78
2023/04/12 04:01:48;;;;;;;6.80;2.50;;;4.90;99.90;;;;;;5047275;28;20032;-78
2023/04/12 04:04:14;;;;;;;4.43;2.20;;;5.00;99.90;;;;;;5049070;28;20041;-78
2023/04/12 04:06:40;;;;;;;6.83;2.47;;;5.00;99.90;;;;;;5048584;28;20117;-78
2023/04/12 04:09:06;;;;;;;6.13;2.30;;;5.00;99.90;;;;;;5048871;28;20385;-77
2023/04/12 04:11:31;;;;;;;7.57;2.20;;;4.90;99.90;;;;;;5048566;28;20025;-77
2023/04/12 04:13:57;;;;;;;6.33;2.47;;;5.00;99.90;;;;;;5049141;28;20035;-78
2023/04/12 04:16:22;;;;;;;6.43;2.67;;;5.00;99.90;;;;;;5051547;28;20400;-77
2023/04/12 04:18:48;;;;;;;6.80;2.50;;;5.00;99.90;;;;;;5052388;28;20518;-78
2023/04/12 04:21:14;;;;;;;5.07;2.40;;;5.00;99.90;;;;;;5052013;28;20043;-78
2023/04/12 04:23:43;;;;;;;9.13;2.67;;;5.00;99.90;;;;;;5050861;28;20029;-78
2023/04/12 04:26:09;;;;;;;6.20;2.20;;;5.00;99.90;;;;;;5052210;28;20127;-78
2023/04/12 04:28:41;;;;;;;6.23;2.80;;;5.00;99.90;;;;;;5052588;28;20032;-78
2023/04/12 04:31:09;;;;;;;8.10;2.23;;;5.00;99.90;;;;;;5051430;28;20050;-78
2023/04/12 04:33:35;;;;;;;7.83;2.30;;;5.00;99.90;;;;;;5052095;28;20028;-78
2023/04/12 04:36:03;;;;;;;6.33;2.20;;;5.00;99.90;;;;;;5052307;28;20397;-78
2023/04/12 04:38:31;;;;;;;4.47;2.37;;;5.00;99.90;;;;;;5052298;28;20043;-78
2023/04/12 04:40:57;;;;;;;5.33;2.10;;;5.00;99.90;;;;;;5050618;28;20041;-78
2023/04/12 04:43:23;;;;;;;8.70;2.53;;;4.90;99.90;;;;;;5052306;28;20039;-78
2023/04/12 04:45:53;;;;;;;8.17;2.50;;;5.00;99.90;;;;;;5051976;28;20037;-79
2023/04/12 04:48:19;;;;;;;6.17;2.20;;;5.00;99.90;;;;;;5051660;28;20086;-78
2023/04/12 04:50:45;;;;;;;6.67;3.20;;;4.90;99.90;;;;;;5051805;28;20032;-78
2023/04/12 04:53:11;;;;;;;5.70;2.60;;;4.90;99.90;;;;;;5050977;28;20036;-76
2023/04/12 04:55:37;;;;;;;6.03;2.43;;;4.90;99.90;;;;;;5050585;28;20054;-76
2023/04/12 04:58:04;;;;;;;8.30;2.37;;;4.90;99.90;;;;;;5048804;28;20048;-76
2023/04/12 05:00:30;;;;;;;6.40;2.50;;;4.90;99.90;;;;;;5068479;22;20044;-76
2023/04/12 05:02:56;;;;;;;4.30;2.17;;;4.90;99.90;;;;;;5066812;28;20946;-74
2023/04/12 05:05:22;;;;;;;8.53;2.63;;;4.90;99.90;;;;;;5068963;28;20055;-75
2023/04/12 05:07:48;;;;;;;8.23;2.53;;;4.90;99.90;;;;;;5068493;28;20033;-77
2023/04/12 05:10:14;;;;;;;6.13;2.23;;;4.90;99.90;;;;;;5061692;28;20039;-75
2023/04/12 05:12:39;;;;;;;5.73;2.10;;;4.90;99.90;;;;;;5058357;28;20036;-77
2023/04/12 05:15:06;;;;;;;7.80;2.77;;;4.90;99.90;;;;;;5056828;28;20029;-74
2023/04/12 05:17:33;;;;;;;4.83;1.80;;;5.00;99.90;;;;;;5052844;28;20033;-74
2023/04/12 05:19:59;;;;;;;5.77;2.00;;;5.00;99.90;;;;;;5055634;28;20080;-74
2023/04/12 05:22:25;;;;;;;5.93;2.20;;;5.00;99.90;;;;;;5056629;28;20036;-75
2023/04/12 05:24:51;;;;;;;6.23;1.87;;;5.10;99.90;;;;;;5054464;28;20528;-76
2023/04/12 05:27:17;;;;;;;6.67;2.40;;;5.10;99.90;;;;;;5054232;28;20025;-76
2023/04/12 05:29:43;;;;;;;6.73;2.13;;;5.10;99.90;;;;;;5053821;28;20032;-75
2023/04/12 05:32:09;;;;;;;5.40;2.00;;;5.10;99.90;;;;;;5051971;28;20102;-76
2023/04/12 05:34:34;;;;;;;4.57;1.87;;;5.10;99.90;;;;;;5052776;28;20758;-76
2023/04/12 05:37:02;;;;;;;5.33;1.90;;;5.20;99.90;;;;;;5052466;28;20043;-76
2023/04/12 05:39:27;;;;;;;7.03;2.20;;;5.20;99.90;;;;;;5051546;28;20684;-76
2023/04/12 05:41:53;;;;;;;6.83;2.20;;;5.20;99.90;;;;;;5052551;28;20040;-76
2023/04/12 05:44:19;;;;;;;5.80;2.00;;;5.20;99.90;;;;;;5051965;28;20594;-76
2023/04/12 05:46:44;;;;;;;10.67;2.67;;;5.20;99.90;;;;;;5053814;28;20036;-76
2023/04/12 05:49:10;;;;;;;3.40;2.23;;;5.20;99.90;;;;;;5052987;28;20061;-76
2023/04/12 05:51:35;;;;;;;5.97;2.13;;;5.30;99.90;;;;;;5050805;28;20054;-77
2023/04/12 05:54:05;;;;;;;6.60;2.40;;;5.30;99.90;;;;;;5050627;28;20032;-77
2023/04/12 05:56:31;;;;;;;7.93;2.40;;;5.30;99.90;;;;;;5053468;28;20072;-76
2023/04/12 05:58:56;;;;;;;7.83;2.47;;;5.30;99.90;;;;;;5052426;28;20076;-75
2023/04/12 06:01:23;;;;;;;4.40;2.50;;;5.40;99.90;;;;;;5048434;28;20758;-76
2023/04/12 06:03:50;;;;;;;8.23;2.83;;;5.40;99.90;;;;;;5052189;28;20569;-75
2023/04/12 06:06:16;;;;;;;5.50;2.50;;;5.40;99.90;;;;;;5052517;28;20047;-75
2023/04/12 06:08:41;;;;;;;8.63;2.50;;;5.40;99.90;;;;;;5053691;28;20175;-75
2023/04/12 06:11:08;;;;;;;8.23;2.57;;;5.50;99.90;;;;;;5054293;28;20032;-75
2023/04/12 06:13:33;;;;;;;5.77;2.63;;;5.40;99.90;;;;;;5053367;28;20056;-75
2023/04/12 06:15:59;;;;;;;4.83;2.10;;;5.50;99.90;;;;;;5050889;28;20028;-75
2023/04/12 06:18:25;;;;;;;7.27;2.33;;;5.50;99.90;;;;;;5051496;28;21365;-76
2023/04/12 06:20:50;;;;;;;5.23;2.30;;;5.60;99.90;;;;;;5050736;28;20036;-75
2023/04/12 06:23:18;;;;;;;5.80;2.27;;;5.60;99.90;;;;;;5050511;28;20031;-75
2023/04/12 06:25:43;;;;;;;7.23;2.60;;;5.60;99.90;;;;;;5052758;28;20090;-74
2023/04/12 06:28:09;;;;;;;8.80;2.43;;;5.60;99.90;;;;;;5049821;28;20044;-75
2023/04/12 06:30:35;;;;;;;3.67;2.30;;;5.70;99.90;;;;;;5051240;28;20039;-75
2023/04/12 06:33:00;;;;;;;5.90;2.97;;;5.70;99.90;;;;;;5047001;28;20047;-75
2023/04/12 06:35:26;;;;;;;7.87;2.40;;;5.80;99.90;;;;;;5043925;28;20040;-76
2023/04/12 06:37:51;;;;;;;6.40;2.40;;;5.80;99.90;;;;;;5043375;28;20056;-76
2023/04/12 06:40:17;;;;;;;6.97;2.67;;;5.90;99.90;;;;;;5043594;28;20044;-73
2023/04/12 06:42:42;;;;;;;4.90;2.37;;;5.90;99.90;;;;;;5043934;28;20036;-76
2023/04/12 06:45:08;;;;;;;6.30;2.20;;;5.90;99.90;;;;;;5044684;28;20563;-74
2023/04/12 06:47:34;;;;;;;7.00;2.70;;;6.00;99.90;;;;;;5043405;28;20044;-75
2023/04/12 06:50:00;;;;;;;6.03;2.17;;;6.00;99.90;;;;;;5044883;28;20465;-75
2023/04/12 06:52:26;;;;;;;3.13;1.93;;;6.10;99.90;;;;;;5043628;28;20036;-74
2023/04/12 06:54:52;;;;;;;7.90;2.60;;;6.10;99.90;;;;;;5043522;28;20720;-74
2023/04/12 06:57:18;;;;;;;5.70;2.70;;;6.10;99.90;;;;;;5043515;28;20037;-73
2023/04/12 06:59:43;;;;;;;6.17;2.40;;;6.10;99.90;;;;;;5041658;28;20047;-73
2023/04/12 07:02:10;;;;;;;6.60;2.67;;;6.20;99.90;;;;;;5044788;28;20032;-75
2023/04/12 07:04:36;;;;;;;6.57;2.57;;;6.20;99.90;;;;;;5045152;28;20040;-74
2023/04/12 07:07:01;;;;;;;6.03;2.47;;;6.30;99.90;;;;;;5039427;28;20420;-74
2023/04/12 07:09:31;;;;;;;7.57;2.30;;;6.30;99.90;;;;;;5043796;28;20060;-75
2023/04/12 07:11:57;;;;;;;4.97;2.33;;;6.40;99.90;;;;;;5043461;28;20551;-73
2023/04/12 07:14:22;;;;;;;5.03;2.10;;;6.50;99.90;;;;;;5042820;28;20040;-75
2023/04/12 07:16:48;;;;;;;5.57;2.50;;;6.60;99.90;;;;;;5042805;28;20035;-74
2023/04/12 07:19:13;;;;;;;4.63;2.10;;;6.60;99.90;;;;;;5042200;28;20040;-75
2023/04/12 07:21:39;;;;;;;4.87;2.50;;;6.60;99.90;;;;;;5042310;28;20067;-73
2023/04/12 07:24:05;;;;;;;8.73;2.47;;;6.60;99.90;;;;;;5044340;28;20413;-74
2023/04/12 07:26:30;;;;;;;6.17;2.20;;;6.60;99.90;;;;;;5041994;28;20043;-73
2023/04/12 07:28:56;;;;;;;5.13;2.40;;;6.60;99.90;;;;;;5043781;28;20045;-74
2023/04/12 07:31:22;;;;;;;5.80;2.80;;;6.60;99.90;;;;;;5041716;28;20033;-74
2023/04/12 07:33:48;;;;;;;4.13;2.43;;;6.70;99.90;;;;;;5044032;28;20025;-74
2023/04/12 07:36:15;;;;;;;6.43;2.50;;;6.70;99.90;;;;;;5043784;28;20036;-75
2023/04/12 07:38:43;;;;;;;8.07;2.30;;;6.80;99.90;;;;;;5044422;28;20040;-73
2023/04/12 07:41:09;;;;;;;5.43;2.40;;;6.80;99.90;;;;;;5043233;28;20120;-73
2023/04/12 07:43:34;;;;;;;7.43;2.77;;;6.90;99.90;;;;;;5044254;28;20020;-74
2023/04/12 07:46:03;;;;;;;6.23;2.50;;;7.00;99.90;;;;;;5043752;28;20163;-74
2023/04/12 07:48:28;;;;;;;6.93;2.50;;;7.10;99.90;;;;;;5049454;28;20040;-74
2023/04/12 07:50:54;;;;;;;3.87;1.90;;;7.20;99.90;;;;;;5047131;28;20064;-73
2023/04/12 07:53:27;;;;;;;5.33;2.30;;;7.30;99.90;;;;;;5047676;28;20153;-74
2023/04/12 07:55:54;;;;;;;4.63;2.27;;;7.50;99.90;;;;;;5046480;28;21378;-74
2023/04/12 07:58:21;;;;;;;6.17;2.50;;;7.60;99.90;;;;;;5047628;28;20072;-74
2023/04/12 08:00:47;;;;;;;4.73;2.10;;;7.70;99.90;;;;;;5056170;22;20071;-78
2023/04/12 08:03:17;;;;;;;7.07;2.43;;;7.70;99.90;;;;;;5015188;28;20603;-78
2023/04/12 08:05:43;;;;;;;3.80;2.50;;;7.80;99.90;;;;;;5015574;28;20581;-78
2023/04/12 08:08:10;;;;;;;3.00;1.80;;;7.90;99.90;;;;;;5016380;28;20038;-78
2023/04/12 08:10:37;;;;;;;8.13;2.40;;;7.90;99.90;;;;;;5015624;28;20029;-79
2023/04/12 08:13:04;;;;;;;5.70;2.20;;;8.00;99.90;;;;;;5013891;28;20450;-78
2023/04/12 08:15:30;;;;;;;5.73;2.17;;;8.10;99.90;;;;;;5012163;28;20021;-77
2023/04/12 08:17:55;;;;;;;5.60;2.30;;;8.10;99.90;;;;;;5009875;28;20410;-77
2023/04/12 08:20:21;;;;;;;4.60;2.10;;;8.10;99.90;;;;;;5011550;28;20037;-77
2023/04/12 08:22:47;;;;;;;6.13;2.20;;;8.10;99.90;;;;;;5012394;28;20064;-77
2023/04/12 08:25:13;;;;;;;5.43;2.30;;;8.10;99.90;;;;;;5010907;28;20402;-77
2023/04/12 08:27:41;;;;;;;3.27;1.90;;;8.20;99.90;;;;;;5011537;28;20037;-77
2023/04/12 08:30:07;;;;;;;7.47;1.83;;;8.10;99.90;;;;;;5011725;28;20041;-77
2023/04/12 08:32:33;;;;;;;4.73;2.23;;;8.20;99.90;;;;;;5013018;28;20271;-78
2023/04/12 08:34:59;;;;;;;3.77;2.10;;;8.20;99.90;;;;;;5011355;28;20038;-77
2023/04/12 08:37:25;;;;;;;4.93;1.93;;;8.10;99.90;;;;;;5010008;28;20674;-77
2023/04/12 08:39:50;;;;;;;19.07;10.97;;;8.20;99.90;;;;;;5010533;28;20083;-77
2023/04/12 08:42:16;;;;;;;5.10;2.30;;;8.20;99.90;;;;;;5011944;28;20064;-77
2023/04/12 08:44:42;;;;;;;7.70;4.93;;;8.20;99.90;;;;;;5014743;28;20037;-77
2023/04/12 08:47:10;;;;;;;3.60;2.20;;;8.20;99.90;;;;;;5017523;28;20038;-78
2023/04/12 08:49:36;;;;;;;6.67;2.10;;;8.20;99.90;;;;;;5017691;28;20105;-76
2023/04/12 08:52:06;;;;;;;10.27;2.30;;;8.30;99.90;;;;;;5017654;28;20037;-77
2023/04/12 08:54:36;;;;;;;5.33;2.13;;;8.40;99.90;;;;;;5017568;28;20129;-77
2023/04/12 08:57:05;;;;;;;4.53;2.03;;;8.40;99.90;;;;;;5015416;28;20113;-77
2023/04/12 08:59:34;;;;;;;6.40;2.20;;;8.50;99.90;;;;;;5015723;28;20045;-76
2023/04/12 09:02:00;;;;;;;3.63;1.80;;;8.40;99.90;;;;;;5019069;28;20068;-77
2023/04/12 09:04:26;;;;;;;5.13;2.10;;;8.50;99.90;;;;;;5016725;28;20875;-76
2023/04/12 09:06:51;;;;;;;5.90;2.30;;;8.60;99.90;;;;;;5017898;28;20060;-77
2023/04/12 09:09:17;;;;;;;7.70;2.97;;;8.70;99.90;;;;;;5016757;28;20686;-76
2023/04/12 09:11:43;;;;;;;4.30;1.73;;;8.70;99.90;;;;;;5016571;28;20034;-76
2023/04/12 09:14:22;;;;;;;5.10;1.80;;;8.80;99.90;;;;;;5017539;28;20034;-77
2023/04/12 09:16:48;;;;;;;4.53;2.53;;;9.00;99.90;;;;;;5017247;28;20532;-76
2023/04/12 09:19:14;;;;;;;4.00;1.80;;;9.20;99.90;;;;;;5018359;28;20072;-76
2023/04/12 09:21:55;;;;;;;4.13;2.10;;;9.40;99.90;;;;;;5017242;28;20565;-77
2023/04/12 09:24:23;;;;;;;3.47;1.70;;;9.60;99.90;;;;;;5017653;28;20041;-77
2023/04/12 09:27:02;;;;;;;4.07;1.80;;;9.80;99.90;;;;;;5015528;28;20056;-76
2023/04/12 09:29:28;;;;;;;4.03;1.90;;;10.00;99.90;;;;;;5016823;28;21664;-77
2023/04/12 09:32:04;;;;;;;3.23;1.60;;;10.30;99.90;;;;;;5017683;28;20069;-76
2023/04/12 09:34:30;;;;;;;3.53;2.00;;;10.40;99.90;;;;;;5015926;28;20040;-77
2023/04/12 09:36:57;;;;;;;2.77;1.50;;;10.50;99.90;;;;;;5014527;28;20083;-77
2023/04/12 09:39:32;;;;;;;3.03;1.40;;;10.60;99.90;;;;;;5015750;28;20068;-77
2023/04/12 09:42:09;;;;;;;7.30;2.00;;;10.70;99.90;;;;;;5016904;28;20502;-77
2023/04/12 09:44:36;;;;;;;4.43;1.70;;;10.80;99.90;;;;;;5016958;28;20095;-78
2023/04/12 09:47:03;;;;;;;2.92;1.50;;;10.80;99.90;;;;;;5017572;28;20021;-77
2023/04/12 09:49:42;;;;;;;2.70;1.60;;;10.90;99.90;;;;;;5016451;28;20056;-78
2023/04/12 09:52:10;;;;;;;3.47;1.65;;;11.00;99.90;;;;;;5015181;28;20037;-77
2023/04/12 09:54:43;;;;;;;5.87;1.50;;;11.10;99.90;;;;;;5016820;28;20034;-77
2023/04/12 09:57:10;;;;;;;3.00;1.42;;;11.30;99.90;;;;;;5016350;28;20064;-77
2023/04/12 09:59:40;;;;;;;3.80;1.50;;;11.40;99.90;;;;;;5014344;28;20045;-77
2023/04/12 10:02:15;;;;;;;2.03;1.25;;;11.70;99.90;;;;;;5015951;28;20024;-77
2023/04/12 10:04:41;;;;;;;;;;;11.90;99.90;;;;;;5017664;28;20041;-77
2023/04/12 10:07:07;;;;;;;2.08;1.30;;;12.00;99.90;;;;;;5017005;28;20506;-77
2023/04/12 10:09:34;;;;;;;2.33;1.23;;;12.10;99.90;;;;;;5013364;28;20452;-78
2023/04/12 10:12:02;;;;;;;2.88;2.03;;;12.20;99.90;;;;;;5013965;28;20093;-78
2023/04/12 10:14:28;;;;;;;3.53;1.17;;;12.20;99.90;;;;;;5016289;28;20033;-78
2023/04/12 10:17:00;;;;;;;3.13;1.98;;;12.30;99.90;;;;;;5014872;28;20033;-78
2023/04/12 10:19:28;;;;;;;15.57;8.07;;;12.40;99.90;;;;;;5014369;28;21342;-78
2023/04/12 10:21:55;;;;;;;20.60;10.00;;;12.50;99.90;;;;;;5017768;28;20368;-78
2023/04/12 10:24:25;;;;;;;32.15;13.23;;;12.70;99.90;;;;;;5017785;28;20037;-78
2023/04/12 10:26:52;;;;;;;2.88;1.45;;;12.90;99.90;;;;;;5018928;28;20017;-78
2023/04/12 10:29:33;;;;;;;3.67;2.25;;;13.10;99.90;;;;;;5016104;28;20064;-78
2023/04/12 10:32:21;;;;;;;4.35;1.35;;;13.50;99.90;;;;;;5015987;28;20083;-79
2023/04/12 10:34:56;;;;;;;1.25;1.10;;;13.70;99.90;;;;;;5013789;28;20026;-79
2023/04/12 10:38:01;;;;;;;1.75;1.23;;;14.00;99.90;;;;;;5016226;28;20119;-78
2023/04/12 10:40:30;;;;;;;2.58;1.25;;;14.10;99.90;;;;;;5015584;28;20045;-78
2023/04/12 10:43:17;;;;;;;6.15;1.20;;;14.10;99.90;;;;;;5015956;28;20036;-78
2023/04/12 10:45:44;;;;;;;3.90;0.90;;;14.20;99.90;;;;;;5012401;28;20037;-79
2023/04/12 10:48:29;;;;;;;2.38;1.20;;;14.10;99.90;;;;;;5017013;28;20036;-79
2023/04/12 10:51:13;;;;;;;3.50;1.20;;;14.20;99.90;;;;;;5021353;28;20065;-79
2023/04/12 10:53:39;;;;;;;3.65;1.33;;;14.20;99.90;;;;;;5025495;28;20041;-80
2023/04/12 10:56:30;;;;;;;2.60;1.10;;;14.20;99.90;;;;;;5027206;28;20059;-80
2023/04/12 10:59:00;;;;;;;2.75;1.50;;;14.20;99.90;;;;;;5025711;28;20103;-79
2023/04/12 11:01:26;;;;;;;3.30;1.10;;;14.00;99.90;;;;;;5023877;28;20397;-80
2023/04/12 11:04:21;;;;;;;2.42;1.15;;;14.00;99.90;;;;;;5024292;28;20112;-79
2023/04/12 11:06:51;;;;;;;2.40;1.00;;;13.90;99.90;;;;;;5005632;28;20037;-79
2023/04/12 11:09:40;;;;;;;2.83;1.08;;;13.90;99.90;;;;;;5025990;28;20319;-80
2023/04/12 11:12:05;;;;;;;2.25;1.20;;;13.80;99.90;;;;;;5021902;28;20037;-79
2023/04/12 11:14:33;;;;;;;4.78;1.33;;;13.80;99.90;;;;;;5018733;28;20083;-79
2023/04/12 11:17:05;;;;;;;2.33;1.10;;;13.80;99.90;;;;;;5019055;28;20033;-79
2023/04/12 11:19:38;;;;;;;2.05;1.30;;;13.90;99.90;;;;;;5016371;28;20179;-79
2023/04/12 11:22:05;;;;;;;2.58;1.15;;;13.80;99.90;;;;;;5016510;28;20163;-79
2023/04/12 11:24:30;;;;;;;2.60;1.25;;;13.90;99.90;;;;;;5022261;28;20029;-79
2023/04/12 11:26:57;;;;;;;2.58;1.00;;;14.00;99.90;;;;;;5021371;28;20389;-79
2023/04/12 11:29:23;;;;;;;4.93;3.00;;;14.20;99.90;;;;;;5021019;28;20040;-79
2023/04/12 11:31:49;;;;;;;15.10;10.23;;;14.40;99.90;;;;;;5021249;28;20131;-79
2023/04/12 11:34:16;;;;;;;2.30;1.20;;;14.40;99.90;;;;;;5020346;28;20999;-79
2023/04/12 11:36:43;;;;;;;10.75;5.38;;;14.50;99.90;;;;;;5019337;28;20045;-79
2023/04/12 11:39:09;;;;;;;3.00;1.30;;;14.50;99.90;;;;;;5021586;28;20049;-79
2023/04/12 11:41:35;;;;;;;5.30;3.33;;;14.60;99.90;;;;;;5024187;28;20033;-79
2023/04/12 11:44:00;;;;;;;4.00;2.00;;;14.60;99.90;;;;;;5022892;28;20029;-79
2023/04/12 11:46:32;;;;;;;3.15;1.20;;;14.50;99.90;;;;;;5023583;28;20033;-79
2023/04/12 11:48:58;;;;;;;2.40;1.77;;;14.40;99.90;;;;;;5025125;28;20030;-79
2023/04/12 11:51:24;;;;;;;3.05;1.10;;;14.40;99.90;;;;;;5022586;28;20030;-79
2023/04/12 11:53:54;;;;;;;3.90;1.50;;;14.30;99.90;;;;;;5023369;28;20067;-79
2023/04/12 11:56:20;;;;;;;2.58;1.45;;;14.30;99.90;;;;;;5020837;28;20033;-79
2023/04/12 11:58:46;;;;;;;2.70;1.27;;;14.20;99.90;;;;;;5022714;28;20423;-79
2023/04/12 12:01:14;;;;;;;3.40;1.30;;;14.10;99.90;;;;;;5021386;28;20557;-79
2023/04/12 12:03:40;;;;;;;4.57;1.65;;;14.10;99.90;;;;;;5027289;28;20033;-79
2023/04/12 12:06:07;;;;;;;3.83;2.30;;;14.10;99.90;;;;;;5027106;28;20026;-79
2023/04/12 12:08:33;;;;;;;4.13;2.08;;;14.20;99.90;;;;;;5023954;28;20040;-79
2023/04/12 12:10:58;;;;;;;31.35;14.77;;;14.40;99.90;;;;;;5022266;28;20071;-78
2023/04/12 12:13:24;;;;;;;25.65;13.02;;;14.50;99.90;;;;;;5021823;28;20045;-79
2023/04/12 12:15:52;;;;;;;2.70;1.25;;;14.60;99.90;;;;;;5021316;28;20022;-79
2023/04/12 12:18:18;;;;;;;6.80;2.50;;;14.80;99.90;;;;;;5021301;28;20493;-79
2023/04/12 12:20:48;;;;;;;26.48;16.65;;;14.80;99.90;;;;;;5019019;28;20079;-79
2023/04/12 12:23:30;;;;;;;2.15;1.30;;;14.80;99.90;;;;;;5021545;28;20057;-79
2023/04/12 12:26:02;;;;;;;1.60;1.00;;;14.90;99.90;;;;;;5020510;28;20029;-79
2023/04/12 12:28:27;;;;;;;1.90;1.10;;;14.90;99.90;;;;;;5021489;28;20508;-79
2023/04/12 12:30:56;;;;;;;3.20;1.10;;;15.00;99.90;;;;;;5021218;28;20051;-79
2023/04/12 12:33:35;;;;;;;2.83;1.38;;;15.00;99.90;;;;;;5017403;28;20080;-79
2023/04/12 12:36:01;;;;;;;3.42;1.30;;;14.90;99.90;;;;;;5018891;28;20049;-80
2023/04/12 12:38:34;;;;;;;2.33;1.00;;;14.80;99.90;;;;;;5025338;28;20052;-79
2023/04/12 12:41:19;;;;;;;0.95;0.85;;;14.80;99.90;;;;;;5023155;28;21030;-79
2023/04/12 12:43:50;;;;;;;2.72;1.10;;;14.80;99.90;;;;;;5023683;28;21496;-79
2023/04/12 12:46:17;;;;;;;3.25;1.75;;;14.80;99.90;;;;;;5022498;28;21493;-79
2023/04/12 12:48:44;;;;;;;1.60;0.82;;;14.80;99.90;;;;;;5024539;28;20075;-79
2023/04/12 12:51:10;;;;;;;5.43;1.92;;;14.80;99.90;;;;;;5024694;28;20428;-79
2023/04/12 12:53:37;;;;;;;2.03;1.20;;;14.70;99.90;;;;;;5023538;28;20034;-79
2023/04/12 12:56:03;;;;;;;1.90;1.02;;;14.70;99.90;;;;;;5023529;28;20036;-79
2023/04/12 12:58:29;;;;;;;3.28;0.95;;;14.50;99.90;;;;;;5024094;28;20037;-79